METAR Data
IDs: Format: Raw Decoded Include TAF

Data at: 0848 UTC 01 Aug 2021

METAR for:KSPB (Scappoose Ind Airpar, OR, US)
Text:KSPB 010753Z AUTO 06003KT 10SM CLR 19/15 A3002 RMK AO2 SLP164 T01940150 403000194
Temperature: 19.4°C ( 67°F)
Dewpoint: 15.0°C ( 59°F) [RH = 76%]
Pressure (altimeter):30.02 inches Hg (1016.7 mb) [Sea level pressure: 1016.4 mb]
Winds:from the ENE (60 degrees) at 3 MPH (3 knots; 1.5 m/s)
Visibility:10 or more sm (16+ km)
Ceiling:at least 12,000 feet AGL
Clouds:sky clear below 12,000 feet AGL
QC Flag:automated observation with no human augmentation